sensor_id;sensor_type;location;lat;lon;timestamp;pressure;altitude;pressure_sealevel;temperature
65316;BMP280;51920;53.952;10.292;2022-09-23T00:00:41;101589.78;;;9.87
65316;BMP280;51920;53.952;10.292;2022-09-23T00:03:08;101591.34;;;9.88
65316;BMP280;51920;53.952;10.292;2022-09-23T00:05:34;101582.44;;;9.88
65316;BMP280;51920;53.952;10.292;2022-09-23T00:07:59;101590.47;;;9.84
65316;BMP280;51920;53.952;10.292;2022-09-23T00:10:28;101583.16;;;9.85
65316;BMP280;51920;53.952;10.292;2022-09-23T00:12:55;101587.34;;;9.82
65316;BMP280;51920;53.952;10.292;2022-09-23T00:15:20;101576.06;;;9.80
65316;BMP280;51920;53.952;10.292;2022-09-23T00:17:46;101582.03;;;9.86
65316;BMP280;51920;53.952;10.292;2022-09-23T00:20:12;101578.53;;;9.85
65316;BMP280;51920;53.952;10.292;2022-09-23T00:22:38;101566.94;;;9.85
65316;BMP280;51920;53.952;10.292;2022-09-23T00:25:07;101573.53;;;9.87
65316;BMP280;51920;53.952;10.292;2022-09-23T00:27:34;101561.94;;;9.87
65316;BMP280;51920;53.952;10.292;2022-09-23T00:30:00;101574.06;;;9.93
65316;BMP280;51920;53.952;10.292;2022-09-23T00:32:26;101571.25;;;9.89
65316;BMP280;51920;53.952;10.292;2022-09-23T00:34:52;101558.97;;;9.92
65316;BMP280;51920;53.952;10.292;2022-09-23T00:37:18;101566.19;;;9.88
65316;BMP280;51920;53.952;10.292;2022-09-23T00:39:44;101557.22;;;9.84
65316;BMP280;51920;53.952;10.292;2022-09-23T00:42:13;101558.09;;;9.72
65316;BMP280;51920;53.952;10.292;2022-09-23T00:44:50;101558.44;;;9.70
65316;BMP280;51920;53.952;10.292;2022-09-23T00:49:49;101552.59;;;9.68
65316;BMP280;51920;53.952;10.292;2022-09-23T00:52:18;101548.34;;;9.67
65316;BMP280;51920;53.952;10.292;2022-09-23T00:54:45;101546.69;;;9.63
65316;BMP280;51920;53.952;10.292;2022-09-23T00:57:13;101547.72;;;9.58
65316;BMP280;51920;53.952;10.292;2022-09-23T00:59:41;101542.59;;;9.53
65316;BMP280;51920;53.952;10.292;2022-09-23T01:02:07;101549.22;;;9.56
65316;BMP280;51920;53.952;10.292;2022-09-23T01:04:34;101542.13;;;9.51
65316;BMP280;51920;53.952;10.292;2022-09-23T01:07:00;101546.25;;;9.45
65316;BMP280;51920;53.952;10.292;2022-09-23T01:09:26;101524.69;;;9.32
65316;BMP280;51920;53.952;10.292;2022-09-23T01:14:54;101526.72;;;9.36
65316;BMP280;51920;53.952;10.292;2022-09-23T01:23:20;101528.00;;;9.42
65316;BMP280;51920;53.952;10.292;2022-09-23T01:26:12;101522.53;;;9.38
65316;BMP280;51920;53.952;10.292;2022-09-23T01:31:42;101509.59;;;9.31
65316;BMP280;51920;53.952;10.292;2022-09-23T01:34:17;101505.75;;;9.32
65316;BMP280;51920;53.952;10.292;2022-09-23T01:37:00;101513.19;;;9.36
65316;BMP280;51920;53.952;10.292;2022-09-23T01:39:43;101500.28;;;9.29
65316;BMP280;51920;53.952;10.292;2022-09-23T01:42:15;101507.28;;;9.30
65316;BMP280;51920;53.952;10.292;2022-09-23T01:44:53;101502.56;;;9.27
65316;BMP280;51920;53.952;10.292;2022-09-23T01:47:29;101485.25;;;9.16
65316;BMP280;51920;53.952;10.292;2022-09-23T01:50:07;101496.28;;;9.23
65316;BMP280;51920;53.952;10.292;2022-09-23T01:52:55;101503.16;;;9.20
65316;BMP280;51920;53.952;10.292;2022-09-23T01:55:30;101498.09;;;9.19
65316;BMP280;51920;53.952;10.292;2022-09-23T01:58:04;101493.72;;;9.14
65316;BMP280;51920;53.952;10.292;2022-09-23T02:00:35;101493.91;;;9.21
65316;BMP280;51920;53.952;10.292;2022-09-23T02:03:16;101483.53;;;9.23
65316;BMP280;51920;53.952;10.292;2022-09-23T02:05:46;101492.41;;;9.24
65316;BMP280;51920;53.952;10.292;2022-09-23T02:08:18;101483.81;;;9.18
65316;BMP280;51920;53.952;10.292;2022-09-23T02:10:48;101489.22;;;9.18
65316;BMP280;51920;53.952;10.292;2022-09-23T02:13:22;101470.47;;;9.09
65316;BMP280;51920;53.952;10.292;2022-09-23T02:15:53;101470.34;;;9.06
65316;BMP280;51920;53.952;10.292;2022-09-23T02:18:33;101480.84;;;9.07
65316;BMP280;51920;53.952;10.292;2022-09-23T02:21:05;101477.78;;;9.09
65316;BMP280;51920;53.952;10.292;2022-09-23T02:23:41;101473.50;;;9.08
65316;BMP280;51920;53.952;10.292;2022-09-23T02:26:20;101475.31;;;9.04
65316;BMP280;51920;53.952;10.292;2022-09-23T02:29:06;101469.06;;;9.00
65316;BMP280;51920;53.952;10.292;2022-09-23T02:31:41;101465.63;;;9.03
65316;BMP280;51920;53.952;10.292;2022-09-23T02:34:18;101458.50;;;8.95
65316;BMP280;51920;53.952;10.292;2022-09-23T02:37:04;101459.22;;;8.92
65316;BMP280;51920;53.952;10.292;2022-09-23T02:39:38;101457.84;;;8.85
65316;BMP280;51920;53.952;10.292;2022-09-23T02:42:09;101458.81;;;8.77
65316;BMP280;51920;53.952;10.292;2022-09-23T02:44:36;101453.66;;;8.72
65316;BMP280;51920;53.952;10.292;2022-09-23T02:47:02;101441.81;;;8.61
65316;BMP280;51920;53.952;10.292;2022-09-23T02:49:29;101445.31;;;8.61
65316;BMP280;51920;53.952;10.292;2022-09-23T02:51:56;101454.16;;;8.62
65316;BMP280;51920;53.952;10.292;2022-09-23T02:54:26;101441.06;;;8.48
65316;BMP280;51920;53.952;10.292;2022-09-23T02:56:52;101443.44;;;8.49
65316;BMP280;51920;53.952;10.292;2022-09-23T02:59:18;101445.69;;;8.47
65316;BMP280;51920;53.952;10.292;2022-09-23T03:07:27;101430.69;;;8.34
65316;BMP280;51920;53.952;10.292;2022-09-23T03:10:07;101439.88;;;8.33
65316;BMP280;51920;53.952;10.292;2022-09-23T03:18:16;101427.31;;;8.25
65316;BMP280;51920;53.952;10.292;2022-09-23T03:20:52;101426.44;;;8.21
65316;BMP280;51920;53.952;10.292;2022-09-23T03:23:24;101422.88;;;8.17
65316;BMP280;51920;53.952;10.292;2022-09-23T03:25:52;101425.91;;;8.15
65316;BMP280;51920;53.952;10.292;2022-09-23T03:28:20;101404.53;;;8.10
65316;BMP280;51920;53.952;10.292;2022-09-23T03:30:48;101409.38;;;8.17
65316;BMP280;51920;53.952;10.292;2022-09-23T03:33:16;101407.13;;;8.19
65316;BMP280;51920;53.952;10.292;2022-09-23T03:35:52;101411.44;;;8.23
65316;BMP280;51920;53.952;10.292;2022-09-23T03:38:39;101405.63;;;8.21
65316;BMP280;51920;53.952;10.292;2022-09-23T03:41:09;101407.97;;;8.23
65316;BMP280;51920;53.952;10.292;2022-09-23T03:43:37;101407.97;;;8.23
65316;BMP280;51920;53.952;10.292;2022-09-23T03:46:03;101401.81;;;8.22
65316;BMP280;51920;53.952;10.292;2022-09-23T03:48:28;101401.31;;;8.33
65316;BMP280;51920;53.952;10.292;2022-09-23T03:50:53;101403.88;;;8.41
65316;BMP280;51920;53.952;10.292;2022-09-23T03:53:19;101391.91;;;8.42
65316;BMP280;51920;53.952;10.292;2022-09-23T03:55:46;101386.28;;;8.47
65316;BMP280;51920;53.952;10.292;2022-09-23T03:58:12;101396.59;;;8.58
65316;BMP280;51920;53.952;10.292;2022-09-23T04:00:37;101390.91;;;8.63
65316;BMP280;51920;53.952;10.292;2022-09-23T04:03:03;101393.47;;;8.72
65316;BMP280;51920;53.952;10.292;2022-09-23T04:05:28;101386.13;;;8.72
65316;BMP280;51920;53.952;10.292;2022-09-23T04:07:54;101384.97;;;8.73
65316;BMP280;51920;53.952;10.292;2022-09-23T04:10:19;101392.50;;;8.80
65316;BMP280;51920;53.952;10.292;2022-09-23T04:12:45;101389.09;;;8.83
65316;BMP280;51920;53.952;10.292;2022-09-23T04:15:10;101386.16;;;8.88
65316;BMP280;51920;53.952;10.292;2022-09-23T04:17:36;101385.88;;;8.93
65316;BMP280;51920;53.952;10.292;2022-09-23T04:20:01;101381.84;;;9.03
65316;BMP280;51920;53.952;10.292;2022-09-23T04:22:26;101378.56;;;9.09
65316;BMP280;51920;53.952;10.292;2022-09-23T04:24:52;101370.78;;;9.08
65316;BMP280;51920;53.952;10.292;2022-09-23T04:27:17;101366.63;;;9.10
65316;BMP280;51920;53.952;10.292;2022-09-23T04:29:43;101365.56;;;9.15
65316;BMP280;51920;53.952;10.292;2022-09-23T04:32:09;101366.94;;;9.25
65316;BMP280;51920;53.952;10.292;2022-09-23T04:34:34;101363.44;;;9.24
65316;BMP280;51920;53.952;10.292;2022-09-23T04:36:59;101365.09;;;9.29
65316;BMP280;51920;53.952;10.292;2022-09-23T04:39:25;101364.47;;;9.36
65316;BMP280;51920;53.952;10.292;2022-09-23T04:41:51;101356.63;;;9.30
65316;BMP280;51920;53.952;10.292;2022-09-23T04:44:16;101352.94;;;9.39
65316;BMP280;51920;53.952;10.292;2022-09-23T04:46:42;101358.34;;;9.39
65316;BMP280;51920;53.952;10.292;2022-09-23T04:49:14;101357.16;;;9.36
65316;BMP280;51920;53.952;10.292;2022-09-23T04:51:40;101358.72;;;9.37
65316;BMP280;51920;53.952;10.292;2022-09-23T04:54:09;101354.59;;;9.43
65316;BMP280;51920;53.952;10.292;2022-09-23T04:56:35;101352.56;;;9.40
65316;BMP280;51920;53.952;10.292;2022-09-23T04:59:00;101355.66;;;9.39
65316;BMP280;51920;53.952;10.292;2022-09-23T05:01:28;101353.75;;;9.39
65316;BMP280;51920;53.952;10.292;2022-09-23T05:03:59;101348.34;;;9.39
65316;BMP280;51920;53.952;10.292;2022-09-23T05:06:32;101354.94;;;9.42
65316;BMP280;51920;53.952;10.292;2022-09-23T05:09:06;101349.13;;;9.40
65316;BMP280;51920;53.952;10.292;2022-09-23T05:11:32;101358.78;;;9.41
65316;BMP280;51920;53.952;10.292;2022-09-23T05:13:58;101354.09;;;9.38
65316;BMP280;51920;53.952;10.292;2022-09-23T05:16:24;101357.16;;;9.36
65316;BMP280;51920;53.952;10.292;2022-09-23T05:18:50;101359.94;;;9.40
65316;BMP280;51920;53.952;10.292;2022-09-23T05:21:18;101357.38;;;9.47
65316;BMP280;51920;53.952;10.292;2022-09-23T05:23:49;101359.22;;;9.43
65316;BMP280;51920;53.952;10.292;2022-09-23T05:26:16;101349.13;;;9.40
65316;BMP280;51920;53.952;10.292;2022-09-23T05:28:41;101352.03;;;9.50
65316;BMP280;51920;53.952;10.292;2022-09-23T05:31:13;101356.66;;;9.50
65316;BMP280;51920;53.952;10.292;2022-09-23T05:33:41;101351.97;;;9.47
65316;BMP280;51920;53.952;10.292;2022-09-23T05:36:07;101347.63;;;9.42
65316;BMP280;51920;53.952;10.292;2022-09-23T05:38:32;101343.78;;;9.43
65316;BMP280;51920;53.952;10.292;2022-09-23T05:41:00;101343.00;;;9.43
65316;BMP280;51920;53.952;10.292;2022-09-23T05:43:26;101336.00;;;9.42
65316;BMP280;51920;53.952;10.292;2022-09-23T05:46:03;101342.22;;;9.42
65316;BMP280;51920;53.952;10.292;2022-09-23T05:48:30;101339.16;;;9.44
65316;BMP280;51920;53.952;10.292;2022-09-23T05:50:56;101341.59;;;9.49
65316;BMP280;51920;53.952;10.292;2022-09-23T05:53:21;101337.03;;;9.53
65316;BMP280;51920;53.952;10.292;2022-09-23T05:55:46;101347.19;;;9.60
65316;BMP280;51920;53.952;10.292;2022-09-23T05:58:12;101343.50;;;9.68
65316;BMP280;51920;53.952;10.292;2022-09-23T06:00:39;101347.41;;;9.70
65316;BMP280;51920;53.952;10.292;2022-09-23T06:03:05;101344.03;;;9.73
65316;BMP280;51920;53.952;10.292;2022-09-23T06:05:31;101339.22;;;9.86
65316;BMP280;51920;53.952;10.292;2022-09-23T06:07:56;101336.91;;;9.85
65316;BMP280;51920;53.952;10.292;2022-09-23T06:10:22;101345.16;;;9.92
65316;BMP280;51920;53.952;10.292;2022-09-23T06:12:48;101332.88;;;9.98
65316;BMP280;51920;53.952;10.292;2022-09-23T06:15:14;101335.72;;;10.05
65316;BMP280;51920;53.952;10.292;2022-09-23T06:17:39;101337.38;;;10.10
65316;BMP280;51920;53.952;10.292;2022-09-23T06:20:05;101339.75;;;10.11
65316;BMP280;51920;53.952;10.292;2022-09-23T06:22:30;101339.41;;;10.17
65316;BMP280;51920;53.952;10.292;2022-09-23T06:24:56;101340.69;;;10.23
65316;BMP280;51920;53.952;10.292;2022-09-23T06:27:21;101336.31;;;10.38
65316;BMP280;51920;53.952;10.292;2022-09-23T06:29:46;101336.91;;;10.50
65316;BMP280;51920;53.952;10.292;2022-09-23T06:32:13;101337.78;;;10.54
65316;BMP280;51920;53.952;10.292;2022-09-23T06:34:38;101335.16;;;10.62
65316;BMP280;51920;53.952;10.292;2022-09-23T06:37:06;101332.84;;;10.64
65316;BMP280;51920;53.952;10.292;2022-09-23T06:39:31;101339.75;;;10.57
65316;BMP280;51920;53.952;10.292;2022-09-23T06:41:57;101333.53;;;10.57
65316;BMP280;51920;53.952;10.292;2022-09-23T06:44:25;101337.09;;;10.61
65316;BMP280;51920;53.952;10.292;2022-09-23T06:46:52;101342.75;;;10.52
65316;BMP280;51920;53.952;10.292;2022-09-23T06:49:17;101339.75;;;10.57
65316;BMP280;51920;53.952;10.292;2022-09-23T06:51:45;101343.19;;;10.54
65316;BMP280;51920;53.952;10.292;2022-09-23T06:54:11;101338.13;;;10.53
65316;BMP280;51920;53.952;10.292;2022-09-23T06:56:37;101338.16;;;10.56
65316;BMP280;51920;53.952;10.292;2022-09-23T06:59:02;101334.44;;;10.65
65316;BMP280;51920;53.952;10.292;2022-09-23T07:01:28;101331.97;;;10.79
65316;BMP280;51920;53.952;10.292;2022-09-23T07:03:53;101334.34;;;10.84
65316;BMP280;51920;53.952;10.292;2022-09-23T07:06:19;101337.94;;;10.92
65316;BMP280;51920;53.952;10.292;2022-09-23T07:08:45;101340.19;;;10.86
65316;BMP280;51920;53.952;10.292;2022-09-23T07:11:15;101344.25;;;10.99
65316;BMP280;51920;53.952;10.292;2022-09-23T07:13:43;101342.84;;;11.09
65316;BMP280;51920;53.952;10.292;2022-09-23T07:16:09;101338.72;;;11.19
65316;BMP280;51920;53.952;10.292;2022-09-23T07:18:35;101341.00;;;11.17
65316;BMP280;51920;53.952;10.292;2022-09-23T07:21:15;101341.38;;;11.15
65316;BMP280;51920;53.952;10.292;2022-09-23T07:23:46;101342.94;;;11.16
65316;BMP280;51920;53.952;10.292;2022-09-23T07:26:15;101340.59;;;11.15
65316;BMP280;51920;53.952;10.292;2022-09-23T07:28:41;101343.97;;;11.35
65316;BMP280;51920;53.952;10.292;2022-09-23T07:31:10;101341.97;;;11.62
65316;BMP280;51920;53.952;10.292;2022-09-23T07:33:36;101349.31;;;11.95
65316;BMP280;51920;53.952;10.292;2022-09-23T07:36:08;101343.44;;;12.34
65316;BMP280;51920;53.952;10.292;2022-09-23T07:38:35;101344.41;;;12.56
65316;BMP280;51920;53.952;10.292;2022-09-23T07:41:06;101349.59;;;12.76
65316;BMP280;51920;53.952;10.292;2022-09-23T07:43:33;101350.22;;;13.14
65316;BMP280;51920;53.952;10.292;2022-09-23T07:46:00;101352.63;;;13.37
65316;BMP280;51920;53.952;10.292;2022-09-23T07:48:27;101344.94;;;13.60
65316;BMP280;51920;53.952;10.292;2022-09-23T07:50:54;101352.75;;;13.76
65316;BMP280;51920;53.952;10.292;2022-09-23T07:53:19;101349.56;;;13.49
65316;BMP280;51920;53.952;10.292;2022-09-23T07:55:51;101352.97;;;13.21
65316;BMP280;51920;53.952;10.292;2022-09-23T07:58:16;101358.34;;;13.06
65316;BMP280;51920;53.952;10.292;2022-09-23T08:00:42;101359.47;;;13.05
65316;BMP280;51920;53.952;10.292;2022-09-23T08:03:07;101361.81;;;13.03
65316;BMP280;51920;53.952;10.292;2022-09-23T08:05:33;101359.06;;;13.03
65316;BMP280;51920;53.952;10.292;2022-09-23T08:07:59;101365.72;;;13.09
65316;BMP280;51920;53.952;10.292;2022-09-23T08:10:24;101360.38;;;13.24
65316;BMP280;51920;53.952;10.292;2022-09-23T08:12:50;101359.63;;;13.27
65316;BMP280;51920;53.952;10.292;2022-09-23T08:15:15;101361.47;;;13.16
65316;BMP280;51920;53.952;10.292;2022-09-23T08:17:41;101363.41;;;13.12
65316;BMP280;51920;53.952;10.292;2022-09-23T08:20:07;101368.09;;;13.11
65316;BMP280;51920;53.952;10.292;2022-09-23T08:22:53;101357.59;;;13.17
65316;BMP280;51920;53.952;10.292;2022-09-23T08:25:18;101361.13;;;13.21
65316;BMP280;51920;53.952;10.292;2022-09-23T08:27:44;101355.00;;;13.35
65316;BMP280;51920;53.952;10.292;2022-09-23T08:30:10;101349.66;;;13.67
65316;BMP280;51920;53.952;10.292;2022-09-23T08:32:35;101350.47;;;13.82
65316;BMP280;51920;53.952;10.292;2022-09-23T08:35:01;101342.25;;;13.74
65316;BMP280;51920;53.952;10.292;2022-09-23T08:37:26;101347.75;;;13.92
65316;BMP280;51920;53.952;10.292;2022-09-23T08:39:51;101350.84;;;13.94
65316;BMP280;51920;53.952;10.292;2022-09-23T08:42:22;101342.31;;;14.00
65316;BMP280;51920;53.952;10.292;2022-09-23T08:45:01;101343.09;;;14.04
65316;BMP280;51920;53.952;10.292;2022-09-23T08:47:46;101345.06;;;14.10
65316;BMP280;51920;53.952;10.292;2022-09-23T08:50:28;101343.09;;;14.29
65316;BMP280;51920;53.952;10.292;2022-09-23T08:53:01;101339.97;;;14.34
65316;BMP280;51920;53.952;10.292;2022-09-23T08:55:36;101342.28;;;14.57
65316;BMP280;51920;53.952;10.292;2022-09-23T08:58:30;101339.97;;;14.52
65316;BMP280;51920;53.952;10.292;2022-09-23T09:01:08;101336.09;;;14.53
65316;BMP280;51920;53.952;10.292;2022-09-23T09:06:15;101330.97;;;14.73
65316;BMP280;51920;53.952;10.292;2022-09-23T09:08:43;101321.16;;;15.00
65316;BMP280;51920;53.952;10.292;2022-09-23T09:11:14;101323.81;;;15.15
65316;BMP280;51920;53.952;10.292;2022-09-23T09:13:50;101322.94;;;15.29
65316;BMP280;51920;53.952;10.292;2022-09-23T09:17:28;101316.41;;;15.82
65316;BMP280;51920;53.952;10.292;2022-09-23T09:19:47;101321.41;;;16.35
65316;BMP280;51920;53.952;10.292;2022-09-23T09:25:15;101317.34;;;17.16
65316;BMP280;51920;53.952;10.292;2022-09-23T09:27:41;101318.78;;;17.51
65316;BMP280;51920;53.952;10.292;2022-09-23T09:30:12;101313.09;;;17.89
65316;BMP280;51920;53.952;10.292;2022-09-23T09:32:53;101318.56;;;18.32
65316;BMP280;51920;53.952;10.292;2022-09-23T09:35:55;101316.41;;;19.00
65316;BMP280;51920;53.952;10.292;2022-09-23T09:38:26;101313.28;;;18.42
65316;BMP280;51920;53.952;10.292;2022-09-23T09:40:53;101312.63;;;17.67
65316;BMP280;51920;53.952;10.292;2022-09-23T09:43:20;101306.91;;;17.34
65316;BMP280;51920;53.952;10.292;2022-09-23T09:46:22;101309.56;;;17.65
65316;BMP280;51920;53.952;10.292;2022-09-23T09:48:54;101305.81;;;17.55
65316;BMP280;51920;53.952;10.292;2022-09-23T09:51:25;101303.47;;;17.54
65316;BMP280;51920;53.952;10.292;2022-09-23T09:53:52;101298.84;;;17.51
65316;BMP280;51920;53.952;10.292;2022-09-23T09:56:22;101297.28;;;17.97
65316;BMP280;51920;53.952;10.292;2022-09-23T09:58:58;101301.75;;;18.50
65316;BMP280;51920;53.952;10.292;2022-09-23T10:01:28;101291.41;;;18.38
65316;BMP280;51920;53.952;10.292;2022-09-23T10:03:56;101274.59;;;18.56
65316;BMP280;51920;53.952;10.292;2022-09-23T10:06:34;101281.94;;;18.79
65316;BMP280;51920;53.952;10.292;2022-09-23T10:11:30;101268.34;;;18.92
65316;BMP280;51920;53.952;10.292;2022-09-23T10:14:16;101274.66;;;19.25
65316;BMP280;51920;53.952;10.292;2022-09-23T10:16:44;101271.56;;;19.23
65316;BMP280;51920;53.952;10.292;2022-09-23T10:19:15;101270.00;;;19.06
65316;BMP280;51920;53.952;10.292;2022-09-23T10:21:41;101274.22;;;19.26
65316;BMP280;51920;53.952;10.292;2022-09-23T10:24:15;101266.72;;;19.11
65316;BMP280;51920;53.952;10.292;2022-09-23T10:26:52;101260.06;;;19.28
65316;BMP280;51920;53.952;10.292;2022-09-23T10:29:52;101263.84;;;19.34
65316;BMP280;51920;53.952;10.292;2022-09-23T10:37:48;101265.19;;;19.42
65316;BMP280;51920;53.952;10.292;2022-09-23T10:40:23;101273.94;;;19.21
65316;BMP280;51920;53.952;10.292;2022-09-23T10:49:41;101264.25;;;19.16
65316;BMP280;51920;53.952;10.292;2022-09-23T11:09:04;101249.91;;;18.92
65316;BMP280;51920;53.952;10.292;2022-09-23T11:11:47;101235.94;;;18.87
65316;BMP280;51920;53.952;10.292;2022-09-23T11:17:46;101242.47;;;18.73
65316;BMP280;51920;53.952;10.292;2022-09-23T11:21:20;101243.97;;;18.77
65316;BMP280;51920;53.952;10.292;2022-09-23T11:40:39;101203.31;;;18.16
65316;BMP280;51920;53.952;10.292;2022-09-23T11:43:17;101197.13;;;18.12
65316;BMP280;51920;53.952;10.292;2022-09-23T11:45:54;101209.69;;;18.29
65316;BMP280;51920;53.952;10.292;2022-09-23T11:48:35;101214.41;;;18.29
65316;BMP280;51920;53.952;10.292;2022-09-23T11:51:08;101203.19;;;18.40
65316;BMP280;51920;53.952;10.292;2022-09-23T11:53:43;101203.88;;;18.47
65316;BMP280;51920;53.952;10.292;2022-09-23T11:56:19;101194.78;;;18.30
65316;BMP280;51920;53.952;10.292;2022-09-23T12:01:29;101187.81;;;18.46
65316;BMP280;51920;53.952;10.292;2022-09-23T12:06:39;101186.44;;;18.54
65316;BMP280;51920;53.952;10.292;2022-09-23T12:09:20;101179.13;;;18.67
65316;BMP280;51920;53.952;10.292;2022-09-23T12:11:57;101185.09;;;18.62
65316;BMP280;51920;53.952;10.292;2022-09-23T12:14:43;101174.28;;;18.55
65316;BMP280;51920;53.952;10.292;2022-09-23T12:17:17;101180.94;;;18.54
65316;BMP280;51920;53.952;10.292;2022-09-23T12:23:09;101174.06;;;18.82
65316;BMP280;51920;53.952;10.292;2022-09-23T12:25:45;101176.69;;;18.69
65316;BMP280;51920;53.952;10.292;2022-09-23T12:28:16;101172.22;;;18.59
65316;BMP280;51920;53.952;10.292;2022-09-23T12:30:44;101169.47;;;18.59
65316;BMP280;51920;53.952;10.292;2022-09-23T12:33:21;101173.59;;;18.51
65316;BMP280;51920;53.952;10.292;2022-09-23T12:35:49;101176.50;;;18.44
65316;BMP280;51920;53.952;10.292;2022-09-23T12:38:27;101166.53;;;18.33
65316;BMP280;51920;53.952;10.292;2022-09-23T12:40:54;101168.91;;;18.31
65316;BMP280;51920;53.952;10.292;2022-09-23T12:43:28;101164.88;;;18.36
65316;BMP280;51920;53.952;10.292;2022-09-23T12:46:01;101167.59;;;18.20
65316;BMP280;51920;53.952;10.292;2022-09-23T12:48:46;101160.44;;;18.06
65316;BMP280;51920;53.952;10.292;2022-09-23T12:51:17;101164.72;;;18.07
65316;BMP280;51920;53.952;10.292;2022-09-23T12:53:59;101163.66;;;18.01
65316;BMP280;51920;53.952;10.292;2022-09-23T13:01:54;101143.47;;;18.11
65316;BMP280;51920;53.952;10.292;2022-09-23T13:07:25;101157.69;;;18.06
65316;BMP280;51920;53.952;10.292;2022-09-23T13:09:55;101159.09;;;18.14
65316;BMP280;51920;53.952;10.292;2022-09-23T13:12:31;101151.38;;;18.09
65316;BMP280;51920;53.952;10.292;2022-09-23T13:15:02;101149.81;;;18.08
65316;BMP280;51920;53.952;10.292;2022-09-23T13:17:36;101145.75;;;17.96
65316;BMP280;51920;53.952;10.292;2022-09-23T13:25:21;101133.44;;;18.04
65316;BMP280;51920;53.952;10.292;2022-09-23T13:27:50;101127.31;;;17.97
65316;BMP280;51920;53.952;10.292;2022-09-23T13:30:20;101132.78;;;17.97
65316;BMP280;51920;53.952;10.292;2022-09-23T13:32:49;101126.63;;;17.92
65316;BMP280;51920;53.952;10.292;2022-09-23T13:35:23;101120.66;;;17.98
65316;BMP280;51920;53.952;10.292;2022-09-23T13:37:50;101121.06;;;17.96
65316;BMP280;51920;53.952;10.292;2022-09-23T13:40:27;101118.75;;;17.95
65316;BMP280;51920;53.952;10.292;2022-09-23T13:42:58;101110.88;;;17.97
65316;BMP280;51920;53.952;10.292;2022-09-23T13:45:25;101110.88;;;17.97
65316;BMP280;51920;53.952;10.292;2022-09-23T13:47:54;101101.47;;;17.98
65316;BMP280;51920;53.952;10.292;2022-09-23T13:50:23;101104.97;;;17.98
65316;BMP280;51920;53.952;10.292;2022-09-23T13:53:00;101098.50;;;18.08
65316;BMP280;51920;53.952;10.292;2022-09-23T13:55:32;101104.25;;;18.14
65316;BMP280;51920;53.952;10.292;2022-09-23T13:58:12;101101.84;;;18.16
65316;BMP280;51920;53.952;10.292;2022-09-23T14:00:38;101105.22;;;18.24
65316;BMP280;51920;53.952;10.292;2022-09-23T14:03:23;101104.94;;;18.18
65316;BMP280;51920;53.952;10.292;2022-09-23T14:05:50;101101.16;;;18.12
65316;BMP280;51920;53.952;10.292;2022-09-23T14:08:16;101104.50;;;18.03
65316;BMP280;51920;53.952;10.292;2022-09-23T14:10:43;101093.09;;;18.05
65316;BMP280;51920;53.952;10.292;2022-09-23T14:13:15;101096.06;;;17.94
65316;BMP280;51920;53.952;10.292;2022-09-23T14:15:41;101091.50;;;17.87
65316;BMP280;51920;53.952;10.292;2022-09-23T14:18:11;101086.00;;;17.87
65316;BMP280;51920;53.952;10.292;2022-09-23T14:20:48;101091.56;;;17.84
65316;BMP280;51920;53.952;10.292;2022-09-23T14:23:15;101087.84;;;17.74
65316;BMP280;51920;53.952;10.292;2022-09-23T14:25:42;101083.91;;;17.75
65316;BMP280;51920;53.952;10.292;2022-09-23T14:28:16;101088.19;;;17.76
65316;BMP280;51920;53.952;10.292;2022-09-23T14:30:43;101082.50;;;17.67
65316;BMP280;51920;53.952;10.292;2022-09-23T14:33:17;101084.06;;;17.68
65316;BMP280;51920;53.952;10.292;2022-09-23T14:35:47;101078.97;;;17.66
65316;BMP280;51920;53.952;10.292;2022-09-23T14:38:20;101080.50;;;17.67
65316;BMP280;51920;53.952;10.292;2022-09-23T14:41:13;101073.38;;;17.74
65316;BMP280;51920;53.952;10.292;2022-09-23T14:43:58;101071.03;;;17.72
65316;BMP280;51920;53.952;10.292;2022-09-23T14:46:30;101072.59;;;17.73
65316;BMP280;51920;53.952;10.292;2022-09-23T14:49:03;101074.16;;;17.94
65316;BMP280;51920;53.952;10.292;2022-09-23T14:51:32;101068.22;;;17.96
65316;BMP280;51920;53.952;10.292;2022-09-23T14:56:53;101058.97;;;17.89
65316;BMP280;51920;53.952;10.292;2022-09-23T14:59:24;101061.84;;;17.82
65316;BMP280;51920;53.952;10.292;2022-09-23T15:01:51;101044.72;;;17.78
65316;BMP280;51920;53.952;10.292;2022-09-23T15:06:56;101051.84;;;17.72
65316;BMP280;51920;53.952;10.292;2022-09-23T15:09:27;101045.28;;;17.69
65316;BMP280;51920;53.952;10.292;2022-09-23T15:12:04;101044.97;;;17.84
65316;BMP280;51920;53.952;10.292;2022-09-23T15:14:35;101041.38;;;17.67
65316;BMP280;51920;53.952;10.292;2022-09-23T15:17:03;101041.75;;;17.69
65316;BMP280;51920;53.952;10.292;2022-09-23T15:19:33;101037.19;;;17.62
65316;BMP280;51920;53.952;10.292;2022-09-23T15:21:59;101032.66;;;17.56
65316;BMP280;51920;53.952;10.292;2022-09-23T15:25:57;101035.50;;;17.49
65316;BMP280;51920;53.952;10.292;2022-09-23T15:30:30;101043.88;;;17.41
65316;BMP280;51920;53.952;10.292;2022-09-23T15:32:56;101047.72;;;17.44
65316;BMP280;51920;53.952;10.292;2022-09-23T15:35:23;101034.72;;;17.28
65316;BMP280;51920;53.952;10.292;2022-09-23T15:37:54;101041.75;;;17.29
65316;BMP280;51920;53.952;10.292;2022-09-23T15:40:25;101042.38;;;17.37
65316;BMP280;51920;53.952;10.292;2022-09-23T15:42:56;101034.34;;;17.26
65316;BMP280;51920;53.952;10.292;2022-09-23T15:47:59;101032.13;;;17.21
65316;BMP280;51920;53.952;10.292;2022-09-23T15:50:26;101033.34;;;17.20
65316;BMP280;51920;53.952;10.292;2022-09-23T15:52:52;101039.13;;;17.22
65316;BMP280;51920;53.952;10.292;2022-09-23T15:55:19;101041.94;;;17.18
65316;BMP280;51920;53.952;10.292;2022-09-23T15:57:48;101041.47;;;17.23
65316;BMP280;51920;53.952;10.292;2022-09-23T16:00:14;101040.81;;;17.16
65316;BMP280;51920;53.952;10.292;2022-09-23T16:02:42;101047.91;;;17.13
65316;BMP280;51920;53.952;10.292;2022-09-23T16:05:22;101046.41;;;17.09